sensor_id;sensor_type;location;lat;lon;timestamp;P1;durP1;ratioP1;P2;durP2;ratioP2
76065;SDS011;64763;48.928;8.474;2024-03-07T00:01:22;38.90;;;17.45;;
76065;SDS011;64763;48.928;8.474;2024-03-07T00:03:48;34.67;;;15.85;;
76065;SDS011;64763;48.928;8.474;2024-03-07T00:06:13;32.22;;;15.27;;
76065;SDS011;64763;48.928;8.474;2024-03-07T00:08:38;31.63;;;15.15;;
76065;SDS011;64763;48.928;8.474;2024-03-07T00:11:04;33.55;;;16.10;;
76065;SDS011;64763;48.928;8.474;2024-03-07T00:13:29;33.03;;;14.93;;
76065;SDS011;64763;48.928;8.474;2024-03-07T00:15:55;33.67;;;15.48;;
76065;SDS011;64763;48.928;8.474;2024-03-07T00:18:21;33.88;;;14.30;;
76065;SDS011;64763;48.928;8.474;2024-03-07T00:20:46;32.80;;;15.32;;
76065;SDS011;64763;48.928;8.474;2024-03-07T00:23:11;29.83;;;15.27;;
76065;SDS011;64763;48.928;8.474;2024-03-07T00:25:37;33.17;;;16.02;;
76065;SDS011;64763;48.928;8.474;2024-03-07T00:28:02;34.63;;;16.92;;
76065;SDS011;64763;48.928;8.474;2024-03-07T00:30:28;32.53;;;16.02;;
76065;SDS011;64763;48.928;8.474;2024-03-07T00:32:54;35.65;;;15.80;;
76065;SDS011;64763;48.928;8.474;2024-03-07T00:35:21;32.70;;;16.23;;
76065;SDS011;64763;48.928;8.474;2024-03-07T00:37:47;32.00;;;15.52;;
76065;SDS011;64763;48.928;8.474;2024-03-07T00:40:12;33.30;;;16.30;;
76065;SDS011;64763;48.928;8.474;2024-03-07T00:42:38;35.70;;;16.63;;
76065;SDS011;64763;48.928;8.474;2024-03-07T00:45:03;35.78;;;15.50;;
76065;SDS011;64763;48.928;8.474;2024-03-07T00:47:29;37.20;;;17.38;;
76065;SDS011;64763;48.928;8.474;2024-03-07T00:49:56;40.95;;;17.58;;
76065;SDS011;64763;48.928;8.474;2024-03-07T00:52:21;38.88;;;17.48;;
76065;SDS011;64763;48.928;8.474;2024-03-07T00:54:46;41.63;;;17.90;;
76065;SDS011;64763;48.928;8.474;2024-03-07T00:57:12;32.90;;;15.70;;
76065;SDS011;64763;48.928;8.474;2024-03-07T00:59:37;35.55;;;16.17;;
76065;SDS011;64763;48.928;8.474;2024-03-07T01:02:02;38.67;;;17.58;;
76065;SDS011;64763;48.928;8.474;2024-03-07T01:04:28;39.72;;;16.85;;
76065;SDS011;64763;48.928;8.474;2024-03-07T01:06:56;41.40;;;18.00;;
76065;SDS011;64763;48.928;8.474;2024-03-07T01:09:23;40.65;;;18.38;;
76065;SDS011;64763;48.928;8.474;2024-03-07T01:11:48;36.97;;;17.00;;
76065;SDS011;64763;48.928;8.474;2024-03-07T01:14:14;35.08;;;16.80;;
76065;SDS011;64763;48.928;8.474;2024-03-07T01:16:40;40.25;;;17.58;;
76065;SDS011;64763;48.928;8.474;2024-03-07T01:19:06;41.47;;;17.55;;
76065;SDS011;64763;48.928;8.474;2024-03-07T01:21:33;43.17;;;17.50;;
76065;SDS011;64763;48.928;8.474;2024-03-07T01:23:59;38.72;;;17.13;;
76065;SDS011;64763;48.928;8.474;2024-03-07T01:26:28;39.22;;;17.63;;
76065;SDS011;64763;48.928;8.474;2024-03-07T01:28:55;37.20;;;17.85;;
76065;SDS011;64763;48.928;8.474;2024-03-07T01:31:22;43.08;;;18.77;;
76065;SDS011;64763;48.928;8.474;2024-03-07T01:33:47;38.13;;;16.98;;
76065;SDS011;64763;48.928;8.474;2024-03-07T01:36:13;39.90;;;17.75;;
76065;SDS011;64763;48.928;8.474;2024-03-07T01:38:38;40.75;;;18.27;;
76065;SDS011;64763;48.928;8.474;2024-03-07T01:41:03;44.60;;;17.58;;
76065;SDS011;64763;48.928;8.474;2024-03-07T01:43:29;42.15;;;17.92;;
76065;SDS011;64763;48.928;8.474;2024-03-07T01:45:56;43.80;;;19.63;;
76065;SDS011;64763;48.928;8.474;2024-03-07T01:48:27;47.30;;;19.42;;
76065;SDS011;64763;48.928;8.474;2024-03-07T01:50:56;41.80;;;19.30;;
76065;SDS011;64763;48.928;8.474;2024-03-07T01:53:23;45.85;;;19.08;;
76065;SDS011;64763;48.928;8.474;2024-03-07T01:55:50;47.58;;;18.00;;
76065;SDS011;64763;48.928;8.474;2024-03-07T01:58:17;41.97;;;18.85;;
76065;SDS011;64763;48.928;8.474;2024-03-07T02:00:44;44.28;;;18.77;;
76065;SDS011;64763;48.928;8.474;2024-03-07T02:03:09;41.83;;;17.80;;
76065;SDS011;64763;48.928;8.474;2024-03-07T02:05:35;45.80;;;18.35;;
76065;SDS011;64763;48.928;8.474;2024-03-07T02:08:00;39.83;;;18.42;;
76065;SDS011;64763;48.928;8.474;2024-03-07T02:10:27;41.20;;;19.10;;
76065;SDS011;64763;48.928;8.474;2024-03-07T02:12:52;49.53;;;20.50;;
76065;SDS011;64763;48.928;8.474;2024-03-07T02:15:18;54.83;;;20.17;;
76065;SDS011;64763;48.928;8.474;2024-03-07T02:17:43;42.92;;;18.75;;
76065;SDS011;64763;48.928;8.474;2024-03-07T02:20:09;42.65;;;19.40;;
76065;SDS011;64763;48.928;8.474;2024-03-07T02:22:36;42.08;;;18.50;;
76065;SDS011;64763;48.928;8.474;2024-03-07T02:25:02;49.45;;;20.05;;
76065;SDS011;64763;48.928;8.474;2024-03-07T02:27:27;45.00;;;20.60;;
76065;SDS011;64763;48.928;8.474;2024-03-07T02:29:53;41.00;;;18.50;;
76065;SDS011;64763;48.928;8.474;2024-03-07T02:32:19;45.47;;;19.15;;
76065;SDS011;64763;48.928;8.474;2024-03-07T02:34:44;48.33;;;18.55;;
76065;SDS011;64763;48.928;8.474;2024-03-07T02:37:09;46.05;;;19.20;;
76065;SDS011;64763;48.928;8.474;2024-03-07T02:39:38;48.17;;;19.67;;
76065;SDS011;64763;48.928;8.474;2024-03-07T02:42:03;45.60;;;19.15;;
76065;SDS011;64763;48.928;8.474;2024-03-07T02:44:29;43.55;;;19.35;;
76065;SDS011;64763;48.928;8.474;2024-03-07T02:46:56;40.75;;;18.98;;
76065;SDS011;64763;48.928;8.474;2024-03-07T02:49:22;41.75;;;18.52;;
76065;SDS011;64763;48.928;8.474;2024-03-07T02:51:47;46.63;;;19.17;;
76065;SDS011;64763;48.928;8.474;2024-03-07T02:54:13;37.15;;;16.65;;
76065;SDS011;64763;48.928;8.474;2024-03-07T02:56:38;37.63;;;17.25;;
76065;SDS011;64763;48.928;8.474;2024-03-07T02:59:03;43.60;;;19.60;;
76065;SDS011;64763;48.928;8.474;2024-03-07T03:01:29;43.70;;;18.77;;
76065;SDS011;64763;48.928;8.474;2024-03-07T03:03:54;40.20;;;18.52;;
76065;SDS011;64763;48.928;8.474;2024-03-07T03:06:19;35.50;;;17.20;;
76065;SDS011;64763;48.928;8.474;2024-03-07T03:08:47;40.08;;;18.85;;
76065;SDS011;64763;48.928;8.474;2024-03-07T03:11:13;38.38;;;18.88;;
76065;SDS011;64763;48.928;8.474;2024-03-07T03:13:41;38.30;;;18.08;;
76065;SDS011;64763;48.928;8.474;2024-03-07T03:16:07;42.63;;;18.70;;
76065;SDS011;64763;48.928;8.474;2024-03-07T03:18:33;34.92;;;16.90;;
76065;SDS011;64763;48.928;8.474;2024-03-07T03:20:59;41.50;;;18.17;;
76065;SDS011;64763;48.928;8.474;2024-03-07T03:23:25;44.08;;;17.73;;
76065;SDS011;64763;48.928;8.474;2024-03-07T03:25:50;36.97;;;18.08;;
76065;SDS011;64763;48.928;8.474;2024-03-07T03:28:16;41.45;;;17.35;;
76065;SDS011;64763;48.928;8.474;2024-03-07T03:30:43;40.20;;;18.13;;
76065;SDS011;64763;48.928;8.474;2024-03-07T03:33:09;43.53;;;19.17;;
76065;SDS011;64763;48.928;8.474;2024-03-07T03:35:34;45.42;;;18.40;;
76065;SDS011;64763;48.928;8.474;2024-03-07T03:38:00;40.90;;;18.58;;
76065;SDS011;64763;48.928;8.474;2024-03-07T03:40:26;38.38;;;16.77;;
76065;SDS011;64763;48.928;8.474;2024-03-07T03:42:51;40.85;;;18.02;;
76065;SDS011;64763;48.928;8.474;2024-03-07T03:45:17;38.95;;;18.92;;
76065;SDS011;64763;48.928;8.474;2024-03-07T03:47:42;40.50;;;19.35;;
76065;SDS011;64763;48.928;8.474;2024-03-07T03:50:09;39.30;;;17.65;;
76065;SDS011;64763;48.928;8.474;2024-03-07T03:52:36;46.20;;;17.80;;
76065;SDS011;64763;48.928;8.474;2024-03-07T03:55:02;43.33;;;19.08;;
76065;SDS011;64763;48.928;8.474;2024-03-07T03:57:29;42.25;;;18.48;;
76065;SDS011;64763;48.928;8.474;2024-03-07T03:59:55;45.17;;;19.33;;
76065;SDS011;64763;48.928;8.474;2024-03-07T04:02:21;44.67;;;18.70;;
76065;SDS011;64763;48.928;8.474;2024-03-07T04:04:47;37.63;;;17.75;;
76065;SDS011;64763;48.928;8.474;2024-03-07T04:07:13;38.85;;;17.95;;
76065;SDS011;64763;48.928;8.474;2024-03-07T04:09:40;49.45;;;20.38;;
76065;SDS011;64763;48.928;8.474;2024-03-07T04:12:06;42.50;;;18.75;;
76065;SDS011;64763;48.928;8.474;2024-03-07T04:14:35;43.42;;;19.90;;
76065;SDS011;64763;48.928;8.474;2024-03-07T04:17:01;41.17;;;19.50;;
76065;SDS011;64763;48.928;8.474;2024-03-07T04:19:27;47.13;;;19.65;;
76065;SDS011;64763;48.928;8.474;2024-03-07T04:21:52;43.55;;;19.35;;
76065;SDS011;64763;48.928;8.474;2024-03-07T04:24:19;44.20;;;18.58;;
76065;SDS011;64763;48.928;8.474;2024-03-07T04:26:44;41.63;;;19.35;;
76065;SDS011;64763;48.928;8.474;2024-03-07T04:29:10;42.53;;;18.40;;
76065;SDS011;64763;48.928;8.474;2024-03-07T04:31:35;42.80;;;18.40;;
76065;SDS011;64763;48.928;8.474;2024-03-07T04:34:02;41.60;;;18.13;;
76065;SDS011;64763;48.928;8.474;2024-03-07T04:36:27;40.83;;;19.40;;
76065;SDS011;64763;48.928;8.474;2024-03-07T04:38:53;40.90;;;19.30;;
76065;SDS011;64763;48.928;8.474;2024-03-07T04:41:19;44.13;;;21.33;;
76065;SDS011;64763;48.928;8.474;2024-03-07T04:43:44;41.47;;;18.45;;
76065;SDS011;64763;48.928;8.474;2024-03-07T04:46:10;41.35;;;17.00;;
76065;SDS011;64763;48.928;8.474;2024-03-07T04:48:35;44.45;;;19.77;;
76065;SDS011;64763;48.928;8.474;2024-03-07T04:51:01;44.90;;;20.48;;
76065;SDS011;64763;48.928;8.474;2024-03-07T04:53:26;44.92;;;19.83;;
76065;SDS011;64763;48.928;8.474;2024-03-07T04:55:52;42.88;;;18.30;;
76065;SDS011;64763;48.928;8.474;2024-03-07T04:58:18;41.75;;;17.48;;
76065;SDS011;64763;48.928;8.474;2024-03-07T05:00:43;44.65;;;18.77;;
76065;SDS011;64763;48.928;8.474;2024-03-07T05:03:08;41.10;;;19.00;;
76065;SDS011;64763;48.928;8.474;2024-03-07T05:05:34;38.58;;;17.00;;
76065;SDS011;64763;48.928;8.474;2024-03-07T05:08:02;46.90;;;20.00;;
76065;SDS011;64763;48.928;8.474;2024-03-07T05:10:29;44.35;;;19.13;;
76065;SDS011;64763;48.928;8.474;2024-03-07T05:12:55;53.97;;;21.02;;
76065;SDS011;64763;48.928;8.474;2024-03-07T05:15:24;52.58;;;22.35;;
76065;SDS011;64763;48.928;8.474;2024-03-07T05:17:51;47.47;;;19.92;;
76065;SDS011;64763;48.928;8.474;2024-03-07T05:20:17;38.63;;;18.10;;
76065;SDS011;64763;48.928;8.474;2024-03-07T05:22:42;48.25;;;20.35;;
76065;SDS011;64763;48.928;8.474;2024-03-07T05:25:15;46.50;;;19.17;;
76065;SDS011;64763;48.928;8.474;2024-03-07T05:27:44;48.97;;;19.88;;
76065;SDS011;64763;48.928;8.474;2024-03-07T05:30:13;51.28;;;21.77;;
76065;SDS011;64763;48.928;8.474;2024-03-07T05:32:40;50.75;;;21.90;;
76065;SDS011;64763;48.928;8.474;2024-03-07T05:35:06;49.38;;;20.48;;
76065;SDS011;64763;48.928;8.474;2024-03-07T05:37:32;54.50;;;21.42;;
76065;SDS011;64763;48.928;8.474;2024-03-07T05:39:57;44.20;;;20.60;;
76065;SDS011;64763;48.928;8.474;2024-03-07T05:42:22;42.55;;;19.35;;
76065;SDS011;64763;48.928;8.474;2024-03-07T05:44:50;49.35;;;20.27;;
76065;SDS011;64763;48.928;8.474;2024-03-07T05:47:15;51.00;;;19.75;;
76065;SDS011;64763;48.928;8.474;2024-03-07T05:49:42;39.95;;;18.15;;
76065;SDS011;64763;48.928;8.474;2024-03-07T05:52:07;47.55;;;19.33;;
76065;SDS011;64763;48.928;8.474;2024-03-07T05:54:33;44.47;;;20.00;;
76065;SDS011;64763;48.928;8.474;2024-03-07T05:56:58;45.33;;;20.40;;
76065;SDS011;64763;48.928;8.474;2024-03-07T05:59:28;45.28;;;20.02;;
76065;SDS011;64763;48.928;8.474;2024-03-07T06:01:57;45.22;;;19.48;;
76065;SDS011;64763;48.928;8.474;2024-03-07T06:04:23;42.90;;;21.15;;
76065;SDS011;64763;48.928;8.474;2024-03-07T06:06:48;41.03;;;17.83;;
76065;SDS011;64763;48.928;8.474;2024-03-07T06:09:14;49.75;;;20.60;;
76065;SDS011;64763;48.928;8.474;2024-03-07T06:11:40;45.75;;;20.13;;
76065;SDS011;64763;48.928;8.474;2024-03-07T06:14:08;48.97;;;19.45;;
76065;SDS011;64763;48.928;8.474;2024-03-07T06:16:36;47.30;;;18.73;;
76065;SDS011;64763;48.928;8.474;2024-03-07T06:19:03;43.28;;;19.35;;
76065;SDS011;64763;48.928;8.474;2024-03-07T06:21:32;46.20;;;18.80;;
76065;SDS011;64763;48.928;8.474;2024-03-07T06:23:58;38.90;;;16.75;;
76065;SDS011;64763;48.928;8.474;2024-03-07T06:26:31;44.47;;;19.13;;
76065;SDS011;64763;48.928;8.474;2024-03-07T06:29:09;40.00;;;18.05;;
76065;SDS011;64763;48.928;8.474;2024-03-07T06:31:38;43.75;;;18.38;;
76065;SDS011;64763;48.928;8.474;2024-03-07T06:34:03;39.85;;;18.40;;
76065;SDS011;64763;48.928;8.474;2024-03-07T06:36:29;44.30;;;16.92;;
76065;SDS011;64763;48.928;8.474;2024-03-07T06:38:54;45.45;;;19.00;;
76065;SDS011;64763;48.928;8.474;2024-03-07T06:41:20;45.45;;;18.45;;
76065;SDS011;64763;48.928;8.474;2024-03-07T06:43:45;48.63;;;19.10;;
76065;SDS011;64763;48.928;8.474;2024-03-07T06:46:11;41.40;;;17.67;;
76065;SDS011;64763;48.928;8.474;2024-03-07T06:48:37;37.03;;;15.57;;
76065;SDS011;64763;48.928;8.474;2024-03-07T06:51:05;34.88;;;15.73;;
76065;SDS011;64763;48.928;8.474;2024-03-07T06:53:30;38.97;;;17.30;;
76065;SDS011;64763;48.928;8.474;2024-03-07T06:55:56;43.83;;;18.80;;
76065;SDS011;64763;48.928;8.474;2024-03-07T06:58:21;37.13;;;16.38;;
76065;SDS011;64763;48.928;8.474;2024-03-07T07:00:48;44.03;;;17.88;;
76065;SDS011;64763;48.928;8.474;2024-03-07T07:03:23;42.58;;;18.08;;
76065;SDS011;64763;48.928;8.474;2024-03-07T07:05:49;34.88;;;15.95;;
76065;SDS011;64763;48.928;8.474;2024-03-07T07:08:14;41.05;;;16.40;;
76065;SDS011;64763;48.928;8.474;2024-03-07T07:10:41;38.42;;;16.67;;
76065;SDS011;64763;48.928;8.474;2024-03-07T07:13:07;36.50;;;16.65;;
76065;SDS011;64763;48.928;8.474;2024-03-07T07:15:33;42.05;;;17.58;;
76065;SDS011;64763;48.928;8.474;2024-03-07T07:17:59;38.17;;;16.67;;
76065;SDS011;64763;48.928;8.474;2024-03-07T07:20:24;34.65;;;15.63;;
76065;SDS011;64763;48.928;8.474;2024-03-07T07:22:50;37.00;;;15.77;;
76065;SDS011;64763;48.928;8.474;2024-03-07T07:25:18;32.88;;;14.43;;
76065;SDS011;64763;48.928;8.474;2024-03-07T07:27:44;38.97;;;15.77;;
76065;SDS011;64763;48.928;8.474;2024-03-07T07:30:14;36.65;;;15.77;;
76065;SDS011;64763;48.928;8.474;2024-03-07T07:32:42;35.53;;;16.95;;
76065;SDS011;64763;48.928;8.474;2024-03-07T07:35:08;29.52;;;15.07;;
76065;SDS011;64763;48.928;8.474;2024-03-07T07:37:39;34.13;;;14.80;;
76065;SDS011;64763;48.928;8.474;2024-03-07T07:40:06;33.60;;;15.77;;
76065;SDS011;64763;48.928;8.474;2024-03-07T07:42:34;35.03;;;14.52;;
76065;SDS011;64763;48.928;8.474;2024-03-07T07:45:04;35.25;;;15.18;;
76065;SDS011;64763;48.928;8.474;2024-03-07T07:47:36;31.90;;;14.70;;
76065;SDS011;64763;48.928;8.474;2024-03-07T07:50:06;33.35;;;14.65;;
76065;SDS011;64763;48.928;8.474;2024-03-07T07:52:48;39.40;;;15.40;;
76065;SDS011;64763;48.928;8.474;2024-03-07T07:55:15;31.23;;;14.32;;
76065;SDS011;64763;48.928;8.474;2024-03-07T07:57:46;30.25;;;13.75;;
76065;SDS011;64763;48.928;8.474;2024-03-07T08:00:13;31.95;;;14.27;;
76065;SDS011;64763;48.928;8.474;2024-03-07T08:05:32;30.23;;;13.55;;
76065;SDS011;64763;48.928;8.474;2024-03-07T08:08:00;33.90;;;14.25;;
76065;SDS011;64763;48.928;8.474;2024-03-07T08:10:29;35.83;;;14.13;;
76065;SDS011;64763;48.928;8.474;2024-03-07T08:12:55;24.80;;;12.20;;
76065;SDS011;64763;48.928;8.474;2024-03-07T08:15:21;25.88;;;11.32;;
76065;SDS011;64763;48.928;8.474;2024-03-07T08:17:47;23.77;;;10.75;;
76065;SDS011;64763;48.928;8.474;2024-03-07T08:20:18;24.15;;;12.13;;
76065;SDS011;64763;48.928;8.474;2024-03-07T08:22:46;26.90;;;11.55;;
76065;SDS011;64763;48.928;8.474;2024-03-07T08:25:12;26.30;;;12.50;;
76065;SDS011;64763;48.928;8.474;2024-03-07T08:27:38;21.45;;;9.48;;
76065;SDS011;64763;48.928;8.474;2024-03-07T08:30:06;25.67;;;12.80;;
76065;SDS011;64763;48.928;8.474;2024-03-07T08:32:33;23.45;;;11.98;;
76065;SDS011;64763;48.928;8.474;2024-03-07T08:35:02;25.70;;;13.32;;
76065;SDS011;64763;48.928;8.474;2024-03-07T08:37:32;17.77;;;8.98;;
76065;SDS011;64763;48.928;8.474;2024-03-07T08:39:59;27.80;;;11.25;;
76065;SDS011;64763;48.928;8.474;2024-03-07T08:42:24;16.65;;;9.23;;
76065;SDS011;64763;48.928;8.474;2024-03-07T08:44:49;19.92;;;8.63;;
76065;SDS011;64763;48.928;8.474;2024-03-07T08:47:15;23.25;;;10.25;;
76065;SDS011;64763;48.928;8.474;2024-03-07T08:49:40;19.33;;;11.07;;
76065;SDS011;64763;48.928;8.474;2024-03-07T08:52:05;23.48;;;10.50;;
76065;SDS011;64763;48.928;8.474;2024-03-07T08:54:32;23.48;;;10.00;;
76065;SDS011;64763;48.928;8.474;2024-03-07T08:56:58;20.40;;;10.25;;
76065;SDS011;64763;48.928;8.474;2024-03-07T08:59:24;12.73;;;7.25;;
76065;SDS011;64763;48.928;8.474;2024-03-07T09:01:49;14.30;;;8.02;;
76065;SDS011;64763;48.928;8.474;2024-03-07T09:04:15;30.42;;;11.23;;
76065;SDS011;64763;48.928;8.474;2024-03-07T09:06:42;24.35;;;11.70;;
76065;SDS011;64763;48.928;8.474;2024-03-07T09:09:08;22.02;;;10.93;;
76065;SDS011;64763;48.928;8.474;2024-03-07T09:11:34;20.55;;;9.95;;
76065;SDS011;64763;48.928;8.474;2024-03-07T09:14:01;20.20;;;8.90;;
76065;SDS011;64763;48.928;8.474;2024-03-07T09:16:26;21.48;;;10.30;;
76065;SDS011;64763;48.928;8.474;2024-03-07T09:18:52;14.60;;;7.35;;
76065;SDS011;64763;48.928;8.474;2024-03-07T09:21:17;18.75;;;8.98;;
76065;SDS011;64763;48.928;8.474;2024-03-07T09:23:42;19.67;;;9.70;;
76065;SDS011;64763;48.928;8.474;2024-03-07T09:26:08;24.77;;;10.93;;
76065;SDS011;64763;48.928;8.474;2024-03-07T09:28:33;24.67;;;11.00;;
76065;SDS011;64763;48.928;8.474;2024-03-07T09:30:58;22.70;;;10.75;;
76065;SDS011;64763;48.928;8.474;2024-03-07T09:33:24;23.48;;;11.32;;
76065;SDS011;64763;48.928;8.474;2024-03-07T09:35:49;22.63;;;11.38;;
76065;SDS011;64763;48.928;8.474;2024-03-07T09:38:14;23.42;;;11.82;;
76065;SDS011;64763;48.928;8.474;2024-03-07T09:40:40;19.63;;;9.65;;
76065;SDS011;64763;48.928;8.474;2024-03-07T09:43:06;21.42;;;10.07;;
76065;SDS011;64763;48.928;8.474;2024-03-07T09:45:35;20.83;;;10.15;;
76065;SDS011;64763;48.928;8.474;2024-03-07T09:48:02;22.52;;;11.25;;
76065;SDS011;64763;48.928;8.474;2024-03-07T09:50:29;21.38;;;11.02;;
76065;SDS011;64763;48.928;8.474;2024-03-07T09:52:55;24.20;;;11.45;;
76065;SDS011;64763;48.928;8.474;2024-03-07T09:55:20;23.15;;;11.15;;
76065;SDS011;64763;48.928;8.474;2024-03-07T09:57:46;25.02;;;12.60;;
76065;SDS011;64763;48.928;8.474;2024-03-07T10:00:13;20.77;;;11.15;;
76065;SDS011;64763;48.928;8.474;2024-03-07T10:02:48;29.85;;;13.65;;
76065;SDS011;64763;48.928;8.474;2024-03-07T10:05:16;22.58;;;10.20;;
76065;SDS011;64763;48.928;8.474;2024-03-07T10:07:43;22.42;;;11.70;;
76065;SDS011;64763;48.928;8.474;2024-03-07T10:10:10;19.00;;;9.90;;
76065;SDS011;64763;48.928;8.474;2024-03-07T10:12:37;29.15;;;12.82;;
76065;SDS011;64763;48.928;8.474;2024-03-07T10:15:03;18.55;;;10.73;;
76065;SDS011;64763;48.928;8.474;2024-03-07T10:17:35;21.55;;;11.63;;
76065;SDS011;64763;48.928;8.474;2024-03-07T10:20:01;22.42;;;11.52;;
76065;SDS011;64763;48.928;8.474;2024-03-07T10:22:26;26.77;;;11.52;;
76065;SDS011;64763;48.928;8.474;2024-03-07T10:27:18;24.73;;;11.95;;
76065;SDS011;64763;48.928;8.474;2024-03-07T10:29:46;26.27;;;13.02;;
76065;SDS011;64763;48.928;8.474;2024-03-07T10:32:12;26.77;;;13.15;;
76065;SDS011;64763;48.928;8.474;2024-03-07T10:34:38;26.10;;;12.13;;
76065;SDS011;64763;48.928;8.474;2024-03-07T10:37:04;18.88;;;9.52;;
76065;SDS011;64763;48.928;8.474;2024-03-07T10:39:30;26.83;;;12.50;;
76065;SDS011;64763;48.928;8.474;2024-03-07T10:41:56;26.80;;;13.52;;
76065;SDS011;64763;48.928;8.474;2024-03-07T10:44:30;26.58;;;11.85;;
76065;SDS011;64763;48.928;8.474;2024-03-07T10:46:56;23.52;;;11.40;;
76065;SDS011;64763;48.928;8.474;2024-03-07T10:49:25;27.70;;;11.85;;
76065;SDS011;64763;48.928;8.474;2024-03-07T10:52:03;26.30;;;12.85;;
76065;SDS011;64763;48.928;8.474;2024-03-07T10:54:48;26.13;;;13.80;;
76065;SDS011;64763;48.928;8.474;2024-03-07T10:57:20;27.48;;;12.77;;
76065;SDS011;64763;48.928;8.474;2024-03-07T10:59:55;28.88;;;14.05;;
76065;SDS011;64763;48.928;8.474;2024-03-07T11:04:52;26.48;;;12.35;;
76065;SDS011;64763;48.928;8.474;2024-03-07T11:07:19;27.13;;;13.18;;
76065;SDS011;64763;48.928;8.474;2024-03-07T11:09:46;27.25;;;12.93;;
76065;SDS011;64763;48.928;8.474;2024-03-07T11:12:12;22.45;;;10.65;;
76065;SDS011;64763;48.928;8.474;2024-03-07T11:14:38;28.65;;;13.82;;
76065;SDS011;64763;48.928;8.474;2024-03-07T11:17:04;25.52;;;13.15;;
76065;SDS011;64763;48.928;8.474;2024-03-07T11:19:33;22.13;;;10.77;;
76065;SDS011;64763;48.928;8.474;2024-03-07T11:22:01;20.75;;;10.93;;
76065;SDS011;64763;48.928;8.474;2024-03-07T11:24:28;31.35;;;13.88;;
76065;SDS011;64763;48.928;8.474;2024-03-07T11:26:57;27.05;;;14.13;;
76065;SDS011;64763;48.928;8.474;2024-03-07T11:32:17;26.20;;;12.25;;
76065;SDS011;64763;48.928;8.474;2024-03-07T11:34:43;31.20;;;14.32;;
76065;SDS011;64763;48.928;8.474;2024-03-07T11:37:58;26.35;;;12.77;;
76065;SDS011;64763;48.928;8.474;2024-03-07T11:42:49;25.08;;;12.23;;
76065;SDS011;64763;48.928;8.474;2024-03-07T11:45:16;26.42;;;13.05;;
76065;SDS011;64763;48.928;8.474;2024-03-07T11:47:56;23.58;;;11.85;;
76065;SDS011;64763;48.928;8.474;2024-03-07T11:52:51;24.50;;;10.90;;
76065;SDS011;64763;48.928;8.474;2024-03-07T11:55:17;26.27;;;12.13;;
76065;SDS011;64763;48.928;8.474;2024-03-07T11:57:44;22.10;;;11.88;;
76065;SDS011;64763;48.928;8.474;2024-03-07T12:00:11;27.23;;;12.20;;
76065;SDS011;64763;48.928;8.474;2024-03-07T12:02:38;25.45;;;12.77;;
76065;SDS011;64763;48.928;8.474;2024-03-07T12:05:04;24.10;;;12.23;;
76065;SDS011;64763;48.928;8.474;2024-03-07T12:07:30;24.40;;;12.32;;
76065;SDS011;64763;48.928;8.474;2024-03-07T12:09:56;23.48;;;12.13;;
76065;SDS011;64763;48.928;8.474;2024-03-07T12:12:21;27.83;;;13.20;;
76065;SDS011;64763;48.928;8.474;2024-03-07T12:14:47;29.02;;;13.15;;
76065;SDS011;64763;48.928;8.474;2024-03-07T12:17:14;25.65;;;13.10;;
76065;SDS011;64763;48.928;8.474;2024-03-07T12:19:41;28.00;;;12.25;;
76065;SDS011;64763;48.928;8.474;2024-03-07T12:22:10;25.65;;;12.07;;
76065;SDS011;64763;48.928;8.474;2024-03-07T12:24:40;26.85;;;13.13;;
76065;SDS011;64763;48.928;8.474;2024-03-07T12:27:06;28.17;;;14.02;;
76065;SDS011;64763;48.928;8.474;2024-03-07T12:29:32;26.05;;;12.45;;
76065;SDS011;64763;48.928;8.474;2024-03-07T12:31:58;21.75;;;11.43;;
76065;SDS011;64763;48.928;8.474;2024-03-07T12:34:24;26.52;;;13.18;;
76065;SDS011;64763;48.928;8.474;2024-03-07T12:36:51;29.17;;;13.07;;
76065;SDS011;64763;48.928;8.474;2024-03-07T12:39:23;26.00;;;12.23;;
76065;SDS011;64763;48.928;8.474;2024-03-07T12:41:57;29.05;;;11.85;;
76065;SDS011;64763;48.928;8.474;2024-03-07T12:44:22;27.48;;;12.98;;
76065;SDS011;64763;48.928;8.474;2024-03-07T12:46:48;24.77;;;12.38;;
76065;SDS011;64763;48.928;8.474;2024-03-07T12:49:18;24.70;;;12.40;;
76065;SDS011;64763;48.928;8.474;2024-03-07T12:51:44;27.27;;;13.27;;
76065;SDS011;64763;48.928;8.474;2024-03-07T12:54:09;30.10;;;13.75;;
76065;SDS011;64763;48.928;8.474;2024-03-07T12:56:35;24.95;;;12.70;;
76065;SDS011;64763;48.928;8.474;2024-03-07T12:59:02;26.98;;;12.45;;
76065;SDS011;64763;48.928;8.474;2024-03-07T13:01:28;31.35;;;13.80;;
76065;SDS011;64763;48.928;8.474;2024-03-07T13:03:58;29.60;;;13.18;;
76065;SDS011;64763;48.928;8.474;2024-03-07T13:06:24;27.98;;;13.43;;
76065;SDS011;64763;48.928;8.474;2024-03-07T13:08:54;21.45;;;11.60;;
76065;SDS011;64763;48.928;8.474;2024-03-07T13:11:21;24.33;;;12.48;;
76065;SDS011;64763;48.928;8.474;2024-03-07T13:13:47;21.63;;;11.43;;
76065;SDS011;64763;48.928;8.474;2024-03-07T13:16:13;24.95;;;12.38;;
76065;SDS011;64763;48.928;8.474;2024-03-07T13:18:38;24.38;;;11.60;;
76065;SDS011;64763;48.928;8.474;2024-03-07T13:21:04;23.67;;;11.25;;
76065;SDS011;64763;48.928;8.474;2024-03-07T13:23:31;22.15;;;11.50;;
76065;SDS011;64763;48.928;8.474;2024-03-07T13:25:58;24.20;;;12.40;;
76065;SDS011;64763;48.928;8.474;2024-03-07T13:28:24;26.40;;;11.70;;
76065;SDS011;64763;48.928;8.474;2024-03-07T13:30:53;23.17;;;11.68;;
76065;SDS011;64763;48.928;8.474;2024-03-07T13:33:20;25.05;;;11.90;;
76065;SDS011;64763;48.928;8.474;2024-03-07T13:35:45;21.67;;;11.25;;
76065;SDS011;64763;48.928;8.474;2024-03-07T13:38:11;26.30;;;12.40;;
76065;SDS011;64763;48.928;8.474;2024-03-07T13:40:38;22.85;;;11.52;;
76065;SDS011;64763;48.928;8.474;2024-03-07T13:43:04;27.70;;;12.32;;
76065;SDS011;64763;48.928;8.474;2024-03-07T13:45:31;27.48;;;12.77;;
76065;SDS011;64763;48.928;8.474;2024-03-07T13:48:01;19.15;;;9.77;;
76065;SDS011;64763;48.928;8.474;2024-03-07T13:50:30;26.55;;;12.50;;
76065;SDS011;64763;48.928;8.474;2024-03-07T13:52:56;22.80;;;11.63;;
76065;SDS011;64763;48.928;8.474;2024-03-07T13:55:53;25.90;;;12.68;;
76065;SDS011;64763;48.928;8.474;2024-03-07T13:58:33;22.60;;;11.68;;
76065;SDS011;64763;48.928;8.474;2024-03-07T14:06:38;28.70;;;13.43;;
76065;SDS011;64763;48.928;8.474;2024-03-07T14:23:41;29.75;;;13.85;;
76065;SDS011;64763;48.928;8.474;2024-03-07T14:31:55;26.83;;;13.27;;
76065;SDS011;64763;48.928;8.474;2024-03-07T14:36:56;30.58;;;14.10;;
76065;SDS011;64763;48.928;8.474;2024-03-07T14:39:22;31.65;;;14.43;;
76065;SDS011;64763;48.928;8.474;2024-03-07T14:44:19;30.60;;;13.05;;
76065;SDS011;64763;48.928;8.474;2024-03-07T14:46:46;28.95;;;13.57;;
76065;SDS011;64763;48.928;8.474;2024-03-07T14:49:14;24.52;;;12.77;;
76065;SDS011;64763;48.928;8.474;2024-03-07T14:51:41;26.70;;;12.60;;
76065;SDS011;64763;48.928;8.474;2024-03-07T14:54:07;29.60;;;13.63;;
76065;SDS011;64763;48.928;8.474;2024-03-07T14:56:33;29.73;;;14.00;;
76065;SDS011;64763;48.928;8.474;2024-03-07T14:58:59;24.40;;;12.30;;
76065;SDS011;64763;48.928;8.474;2024-03-07T15:01:26;28.85;;;13.70;;
76065;SDS011;64763;48.928;8.474;2024-03-07T15:03:52;25.95;;;13.38;;
76065;SDS011;64763;48.928;8.474;2024-03-07T15:06:18;31.08;;;14.50;;